Time;durP1;ratioP1;P1;durP2;ratioP2;P2;SDS_P1;SDS_P2;PMS_P1;PMS_P2;Temp;Humidity;BMP_temperature;BMP_pressure;BME280_temperature;BME280_humidity;BME280_pressure;Samples;Min_cycle;Max_cycle;Signal;HPM_P1;HPM_P2
2022/01/08 00:00:19;;;;;;;5.68;4.13;;;;;;;;;;5218759;28;20041;-84
2022/01/08 00:02:52;;;;;;;5.97;4.03;;;;;;;;;;5226056;28;20047;-84
2022/01/08 00:05:25;;;;;;;5.78;3.80;;;;;;;;;;5207273;28;20044;-82
2022/01/08 00:07:58;;;;;;;6.32;4.25;;;;;;;;;;5203784;28;20055;-83
2022/01/08 00:10:31;;;;;;;5.25;3.83;;;;;;;;;;5227008;28;20397;-83
2022/01/08 00:13:05;;;;;;;5.97;4.10;;;;;;;;;;5210003;28;20056;-83
2022/01/08 00:15:38;;;;;;;;;;;2.30;99.90;;;;;;5238053;28;20777;-83
2022/01/08 00:18:11;;;;;;;4.20;3.30;;;;;;;;;;5205016;28;19921;-84
2022/01/08 00:20:44;;;;;;;6.60;3.85;;;;;;;;;;5196395;28;20040;-83
2022/01/08 00:23:17;;;;;;;5.70;3.97;;;;;;;;;;5205268;28;20043;-83
2022/01/08 00:25:49;;;;;;;7.43;4.53;;;;;;;;;;5224243;28;20051;-83
2022/01/08 00:28:22;;;;;;;7.68;3.67;;;;;;;;;;5200985;28;20060;-83
2022/01/08 00:30:55;;;;;;;6.45;4.18;;;;;;;;;;5184929;28;20055;-83
2022/01/08 00:33:28;;;;;;;5.50;3.92;;;;;;;;;;5208353;28;20052;-85
2022/01/08 00:36:02;;;;;;;5.10;4.00;;;;;;;;;;5196025;28;20556;-84
2022/01/08 00:38:35;;;;;;;5.60;3.47;;;;;;;;;;5224506;28;20622;-83
2022/01/08 00:41:08;;;;;;;5.75;4.05;;;;;;;;;;5218300;28;20040;-84
2022/01/08 00:43:41;;;;;;;7.10;4.60;;;;;;;;;;5190077;28;20056;-85
2022/01/08 00:46:14;;;;;;;6.90;4.37;;;;;;;;;;5225549;28;20047;-84
2022/01/08 00:48:47;;;;;;;6.38;4.50;;;;;;;;;;5234570;28;20499;-82
2022/01/08 00:51:19;;;;;;;6.07;4.07;;;;;;;;;;5199303;28;20114;-83
2022/01/08 00:53:52;;;;;;;7.28;4.25;;;;;;;;;;5204985;28;20064;-83
2022/01/08 00:56:25;;;;;;;7.07;4.37;;;;;;;;;;5207909;28;20041;-83
2022/01/08 00:58:58;;;;;;;5.30;4.20;;;;;;;;;;5212349;28;20044;-83
2022/01/08 01:01:31;;;;;;;6.20;4.60;;;;;;;;;;5199403;28;20043;-83
2022/01/08 01:04:04;;;;;;;6.20;4.28;;;;;;;;;;5212478;28;21256;-83
2022/01/08 01:06:37;;;;;;;6.28;4.28;;;;;;;;;;5212560;28;20763;-83
2022/01/08 01:09:10;;;;;;;6.35;4.05;;;;;;;;;;5193423;28;20458;-83
2022/01/08 01:11:43;;;;;;;7.68;4.63;;;;;;;;;;5217502;28;20098;-83
2022/01/08 01:14:15;;;;;;;5.53;3.92;;;;;;;;;;5235071;28;20051;-83
2022/01/08 01:16:48;;;;;;;7.53;4.77;;;;;;;;;;5228845;28;20040;-83
2022/01/08 01:19:21;;;;;;;12.17;5.90;;;;;;;;;;5199689;28;20404;-83
2022/01/08 01:21:57;;;;;;;11.52;6.05;;;;;;;;;;5197968;28;20317;-83
2022/01/08 01:24:31;;;;;;;9.32;5.13;;;;;;;;;;5215704;28;20055;-83
2022/01/08 01:29:51;;;;;;;6.27;4.47;;;;;;;;;;5212888;28;20060;-83
2022/01/08 01:49:02;;;;;;;6.18;4.32;;;;;;;;;;5211071;28;20060;-83
2022/01/08 01:51:34;;;;;;;6.63;4.50;;;;;;;;;;5222170;28;20093;-83
2022/01/08 01:54:07;;;;;;;6.93;4.03;;;;;;;;;;5205417;28;20556;-83
2022/01/08 01:56:40;;;;;;;8.13;4.38;;;;;;;;;;5205957;28;20440;-82
2022/01/08 01:59:14;;;;;;;7.00;4.20;;;;;;;;;;5227918;28;20048;-84
2022/01/08 02:01:46;;;;;;;7.07;4.80;;;;;;;;;;5161540;28;20302;-83
2022/01/08 02:04:20;;;;;;;6.83;4.47;;;;;;;;;;5208732;28;20052;-84
2022/01/08 02:06:52;;;;;;;9.15;4.72;;;;;;;;;;5236335;28;20056;-84
2022/01/08 02:09:26;;;;;;;5.30;4.20;;;;;;;;;;5238860;28;20637;-83
2022/01/08 02:12:05;;;;;;;8.20;4.67;;;0.90;99.90;;;;;;5208496;28;20534;-83
2022/01/08 02:14:38;;;;;;;5.82;4.15;;;0.90;99.90;;;;;;5238745;28;20043;-83
2022/01/08 02:17:12;;;;;;;6.57;4.20;;;;;;;;;;5224100;28;20067;-83
2022/01/08 02:19:45;;;;;;;9.03;4.40;;;;;;;;;;5191014;28;20048;-83
2022/01/08 02:22:20;;;;;;;6.85;4.40;;;;;;;;;;5217739;28;20307;-83
2022/01/08 02:24:53;;;;;;;4.63;3.65;;;;;;;;;;5218506;28;20059;-83
2022/01/08 02:27:26;;;;;;;6.80;4.55;;;;;;;;;;5232455;28;20048;-83
2022/01/08 02:29:59;;;;;;;6.23;4.07;;;;;;;;;;5249866;28;20742;-83
2022/01/08 02:32:31;;;;;;;4.72;3.42;;;;;;;;;;5209993;28;20049;-84
2022/01/08 02:35:05;;;;;;;5.63;3.80;;;;;;;;;;5221562;28;20060;-83
2022/01/08 02:37:38;;;;;;;5.55;4.13;;;;;;;;;;5192131;28;20059;-84
2022/01/08 02:40:11;;;;;;;4.65;3.67;;;;;;;;;;5238251;28;20040;-83
2022/01/08 02:42:53;;;;;;;5.32;3.42;;;0.60;99.90;;;;;;5206719;28;20052;-83
2022/01/08 02:45:26;;;;;;;6.47;3.92;;;;;;;;;;5213870;28;20044;-83
2022/01/08 02:47:59;;;;;;;9.68;4.55;;;;;;;;;;5222940;28;20048;-83
2022/01/08 02:50:32;;;;;;;5.32;3.83;;;;;;;;;;5239706;28;20778;-84
2022/01/08 02:53:05;;;;;;;4.45;3.53;;;;;;;;;;5221070;28;20036;-83
2022/01/08 02:55:38;;;;;;;6.23;3.83;;;;;;;;;;5208885;28;20037;-83
2022/01/08 02:58:11;;;;;;;5.95;3.78;;;;;;;;;;5227112;28;20047;-83
2022/01/08 03:00:44;;;;;;;6.25;3.97;;;;;;;;;;5206202;28;20048;-82
2022/01/08 03:03:17;;;;;;;4.90;3.53;;;;;;;;;;5229721;28;20048;-83
2022/01/08 03:05:50;;;;;;;5.20;3.75;;;;;;;;;;5234248;28;20078;-83
2022/01/08 03:08:23;;;;;;;4.65;3.67;;;;;;;;;;5235860;28;20403;-83
2022/01/08 03:10:58;;;;;;;5.97;3.97;;;;;;;;;;5205310;28;20504;-83
2022/01/08 03:13:31;;;;;;;4.90;3.47;;;;;;;;;;5236602;28;20052;-83
2022/01/08 03:16:04;;;;;;;4.70;3.45;;;;;;;;;;5233217;28;20959;-84
2022/01/08 03:18:38;;;;;;;8.07;5.47;;;;;;;;;;5237609;28;20096;-84
2022/01/08 03:21:16;;;;;;;5.90;3.80;;;;;;;;;;5222063;28;20298;-86
2022/01/08 03:23:56;;;;;;;4.30;3.60;;;0.60;99.90;;;;;;5223891;28;20036;-83
2022/01/08 03:26:29;;;;;;;5.10;3.80;;;;;;;;;;5214652;28;20411;-84
2022/01/08 03:29:02;;;;;;;5.32;3.70;;;;;;;;;;5236972;28;20059;-85
2022/01/08 03:31:35;;;;;;;5.72;4.22;;;;;;;;;;5237128;28;20064;-83
2022/01/08 03:34:08;;;;;;;5.07;4.23;;;;;;;;;;5218823;28;20056;-84
2022/01/08 03:36:41;;;;;;;4.25;3.40;;;;;;;;;;5238802;28;20267;-84
2022/01/08 03:39:14;;;;;;;6.90;4.10;;;;;;;;;;5252233;28;20067;-84
2022/01/08 03:41:47;;;;;;;4.38;3.35;;;;;;;;;;5237899;28;20044;-85
2022/01/08 03:44:21;;;;;;;5.43;3.75;;;0.40;99.90;;;;;;5242656;28;20658;-85
2022/01/08 03:47:00;;;;;;;3.58;3.17;;;;;;;;;;5226569;28;20059;-82
2022/01/08 03:49:33;;;;;;;4.55;3.33;;;;;;;;;;5207531;28;20052;-83
2022/01/08 03:52:06;;;;;;;5.43;3.90;;;;;;;;;;5244232;28;20056;-83
2022/01/08 03:54:39;;;;;;;4.83;3.33;;;0.40;99.90;;;;;;5241042;28;20059;-84
2022/01/08 03:57:12;;;;;;;4.78;3.58;;;;;;;;;;5238536;28;20056;-84
2022/01/08 03:59:45;;;;;;;4.17;2.80;;;;;;;;;;5242003;28;20044;-83
2022/01/08 04:02:18;;;;;;;4.43;2.97;;;;;;;;;;5214585;28;20048;-84
2022/01/08 04:04:51;;;;;;;5.07;3.35;;;;;;;;;;5230613;28;20044;-84
2022/01/08 04:07:24;;;;;;;4.67;3.30;;;;;;;;;;5239235;28;20056;-83
2022/01/08 04:09:57;;;;;;;7.00;3.47;;;;;;;;;;5233969;28;21246;-84
2022/01/08 04:12:36;;;;;;;6.70;3.27;;;;;;;;;;5205949;28;20359;-83
2022/01/08 04:15:32;;;;;;;4.20;3.40;;;;;;;;;;5226341;28;20063;-84
2022/01/08 04:18:02;;;;;;;5.00;3.10;;;;;;;;;;5220503;28;20048;-83
2022/01/08 04:20:42;;;;;;;4.28;3.03;;;;;;;;;;5226313;28;20044;-83
2022/01/08 04:23:19;;;;;;;6.25;3.30;;;;;;;;;;5204442;28;20060;-83
2022/01/08 04:25:52;;;;;;;5.50;3.92;;;;;;;;;;5239645;28;20377;-84
2022/01/08 04:28:25;;;;;;;5.05;3.00;;;;;;;;;;5230368;28;20063;-84
2022/01/08 04:30:58;;;;;;;5.43;3.10;;;;;;;;;;5237688;28;20404;-83
2022/01/08 04:33:31;;;;;;;4.03;3.13;;;;;;;;;;5239164;28;20040;-84
2022/01/08 04:36:04;;;;;;;4.43;2.97;;;;;;;;;;5218351;28;20045;-83
2022/01/08 04:38:37;;;;;;;4.90;2.97;;;;;;;;;;5220077;28;20309;-85
2022/01/08 04:41:10;;;;;;;4.63;2.95;;;;;;;;;;5214588;28;20310;-83
2022/01/08 04:43:43;;;;;;;4.45;3.40;;;;;;;;;;5216738;28;20051;-84
2022/01/08 04:46:16;;;;;;;5.13;3.38;;;;;;;;;;5218913;28;20063;-84
2022/01/08 04:48:49;;;;;;;6.90;3.13;;;;;;;;;;5229463;28;20559;-84
2022/01/08 04:51:22;;;;;;;9.27;2.90;;;;;;;;;;5241569;28;20341;-84
2022/01/08 04:53:55;;;;;;;3.63;2.72;;;;;;;;;;5221985;28;20047;-84
2022/01/08 04:56:27;;;;;;;2.93;2.30;;;;;;;;;;5240429;28;20051;-85
2022/01/08 04:59:00;;;;;;;4.30;2.95;;;;;;;;;;5204614;28;20045;-83
2022/01/08 05:01:33;;;;;;;3.38;2.30;;;;;;;;;;5189977;28;20048;-83
2022/01/08 05:04:06;;;;;;;4.67;2.37;;;;;;;;;;5242497;28;20048;-84
2022/01/08 05:06:39;;;;;;;5.55;2.80;;;;;;;;;;5222851;28;20060;-85
2022/01/08 05:09:12;;;;;;;4.07;2.50;;;;;;;;;;5226688;28;20043;-82
2022/01/08 05:11:46;;;;;;;3.50;2.43;;;;;;;;;;5222759;28;20048;-84
2022/01/08 05:14:19;;;;;;;4.32;3.88;;;;;;;;;;5225222;28;20502;-85
2022/01/08 05:16:58;;;;;;;4.40;2.88;;;;;;;;;;5225413;28;20268;-83
2022/01/08 05:20:04;;;;;;;4.68;2.60;;;;;;;;;;5226511;28;20044;-84
2022/01/08 05:22:31;;;;;;;7.10;2.50;;;;;;;;;;5224441;28;20044;-84
2022/01/08 05:25:03;;;;;;;4.38;2.50;;;;;;;;;;5226395;28;20455;-84
2022/01/08 05:27:36;;;;;;;2.80;2.40;;;;;;;;;;5226788;28;20562;-84
2022/01/08 05:30:10;;;;;;;3.03;1.93;;;0.60;99.90;;;;;;5224765;28;20044;-84
2022/01/08 05:32:43;;;;;;;8.13;3.13;;;;;;;;;;5226378;28;20306;-83
2022/01/08 05:35:16;;;;;;;4.45;2.10;;;0.70;99.90;;;;;;5224121;28;20048;-83
2022/01/08 05:37:49;;;;;;;2.03;1.80;;;;;;;;;;5228930;28;20044;-83
2022/01/08 05:40:23;;;;;;;2.65;1.77;;;0.70;99.90;;;;;;5223626;28;20045;-83
2022/01/08 05:42:56;;;;;;;2.60;1.52;;;;;;;;;;5230321;28;20047;-84
2022/01/08 05:45:29;;;;;;;3.72;1.48;;;;;;;;;;5225125;28;20055;-84
2022/01/08 05:48:02;;;;;;;2.55;2.30;;;;;;;;;;5242915;28;20051;-84
2022/01/08 05:50:34;;;;;;;4.83;3.03;;;;;;;;;;5242346;28;20044;-84
2022/01/08 05:53:07;;;;;;;2.80;2.10;;;;;;;;;;5222630;28;20129;-83
2022/01/08 05:55:40;;;;;;;2.60;2.07;;;;;;;;;;5202361;28;20087;-84
2022/01/08 05:58:13;;;;;;;2.90;2.27;;;;;;;;;;5214679;28;20055;-84
2022/01/08 06:00:46;;;;;;;2.33;1.85;;;;;;;;;;5224161;28;20044;-84
2022/01/08 06:03:19;;;;;;;3.55;1.88;;;;;;;;;;5227357;28;20055;-83
2022/01/08 06:05:52;;;;;;;2.60;1.85;;;;;;;;;;5246043;28;20047;-83
2022/01/08 06:08:25;;;;;;;1.98;1.55;;;;;;;;;;5250692;28;20063;-85
2022/01/08 06:10:58;;;;;;;1.73;1.63;;;;;;;;;;5203468;28;20052;-84
2022/01/08 06:13:31;;;;;;;2.53;1.67;;;;;;;;;;5226206;28;20044;-83
2022/01/08 06:16:04;;;;;;;1.77;1.45;;;;;;;;;;5240275;28;20531;-84
2022/01/08 06:18:38;;;;;;;3.58;2.05;;;1.10;99.90;;;;;;5242527;28;20987;-84
2022/01/08 06:21:11;;;;;;;3.75;2.28;;;;;;;;;;5200782;28;20048;-84
2022/01/08 06:23:44;;;;;;;3.17;2.10;;;;;;;;;;5242859;28;20040;-84
2022/01/08 06:26:17;;;;;;;3.00;1.77;;;;;;;;;;5218834;28;20951;-84
2022/01/08 06:28:51;;;;;;;1.92;1.77;;;;;;;;;;5224515;28;20053;-84
2022/01/08 06:31:24;;;;;;;2.28;1.90;;;;;;;;;;5224860;28;20055;-84
2022/01/08 06:33:57;;;;;;;1.90;1.70;;;;;;;;;;5195119;28;20454;-85
2022/01/08 06:36:30;;;;;;;1.33;1.20;;;;;;;;;;5237589;28;20610;-85
2022/01/08 06:39:04;;;;;;;2.55;1.48;;;;;;;;;;5233616;28;20044;-85
2022/01/08 06:41:37;;;;;;;4.82;1.58;;;;;;;;;;5237487;28;20059;-85
2022/01/08 06:44:10;;;;;;;1.73;1.30;;;;;;;;;;5216887;28;20047;-85
2022/01/08 06:46:43;;;;;;;1.27;1.00;;;;;;;;;;5216783;28;20043;-84
2022/01/08 06:49:16;;;;;;;2.30;1.40;;;;;;;;;;5217333;28;20060;-84
2022/01/08 06:51:50;;;;;;;1.50;1.33;;;;;;;;;;5234944;28;20052;-84
2022/01/08 06:54:23;;;;;;;3.47;1.75;;;;;;;;;;5216216;28;20156;-84
2022/01/08 06:56:55;;;;;;;3.42;1.70;;;;;;;;;;5237949;28;20698;-84
2022/01/08 06:59:28;;;;;;;2.53;1.50;;;;;;;;;;5222835;28;20126;-84
2022/01/08 07:02:01;;;;;;;2.07;1.60;;;;;;;;;;5239338;28;20494;-84
2022/01/08 07:04:34;;;;;;;2.23;1.70;;;;;;;;;;5220843;28;20052;-84
2022/01/08 07:07:07;;;;;;;1.60;1.50;;;;;;;;;;5247308;28;20048;-84
2022/01/08 07:09:40;;;;;;;1.92;1.40;;;;;;;;;;5221868;28;20646;-84
2022/01/08 07:12:13;;;;;;;4.63;1.50;;;;;;;;;;5241155;28;20504;-83
2022/01/08 07:14:45;;;;;;;4.33;1.70;;;;;;;;;;5224585;28;20309;-84
2022/01/08 07:17:18;;;;;;;4.05;1.52;;;;;;;;;;5200397;28;20878;-84
2022/01/08 07:19:51;;;;;;;2.07;1.50;;;;;;;;;;5224238;28;20502;-84
2022/01/08 07:22:24;;;;;;;1.88;1.38;;;;;;;;;;5205879;28;20303;-83
2022/01/08 07:24:58;;;;;;;2.25;1.38;;;;;;;;;;5215206;28;20055;-85
2022/01/08 07:27:32;;;;;;;2.33;1.55;;;;;;;;;;5220106;28;20052;-84
2022/01/08 07:30:07;;;;;;;2.80;1.30;;;1.60;99.90;;;;;;5233489;28;20055;-84
2022/01/08 07:32:44;;;;;;;4.78;1.60;;;1.60;99.90;;;;;;5217215;28;20406;-85
2022/01/08 07:35:21;;;;;;;1.92;1.20;;;1.60;99.90;;;;;;5211644;28;20037;-84
2022/01/08 07:37:55;;;;;;;1.77;1.40;;;;;;;;;;5211088;28;20055;-84
2022/01/08 07:40:28;;;;;;;2.33;1.40;;;;;;;;;;5228411;28;20303;-85
2022/01/08 07:43:01;;;;;;;2.20;1.70;;;;;;;;;;5236881;28;20040;-85
2022/01/08 07:45:33;;;;;;;1.58;1.38;;;;;;;;;;5209685;28;20055;-85
2022/01/08 07:48:06;;;;;;;1.67;1.40;;;;;;;;;;5205034;28;20040;-84
2022/01/08 07:50:39;;;;;;;1.77;1.30;;;;;;;;;;5232798;28;20052;-84
2022/01/08 07:53:12;;;;;;;3.80;1.50;;;;;;;;;;5245742;28;20295;-85
2022/01/08 07:55:45;;;;;;;1.83;1.37;;;;;;;;;;5230189;28;20047;-84
2022/01/08 07:58:21;;;;;;;2.23;1.30;;;;;;;;;;5228750;28;20048;-86
2022/01/08 08:00:53;;;;;;;4.07;1.30;;;;;;;;;;5227256;28;20316;-84
2022/01/08 08:03:26;;;;;;;1.65;1.25;;;;;;;;;;5199042;28;20500;-84
2022/01/08 08:06:00;;;;;;;2.22;1.38;;;;;;;;;;5211132;28;25246;-85
2022/01/08 08:08:32;;;;;;;4.63;1.48;;;;;;;;;;5210370;28;20062;-84
2022/01/08 08:11:05;;;;;;;2.10;1.40;;;;;;;;;;5214156;28;20534;-85
2022/01/08 08:13:42;;;;;;;3.17;1.20;;;;;;;;;;5239199;28;20049;-85
2022/01/08 08:16:15;;;;;;;2.03;1.30;;;;;;;;;;5224747;28;20044;-84
2022/01/08 08:18:48;;;;;;;1.27;1.13;;;;;;;;;;5218166;28;20048;-84
2022/01/08 08:21:21;;;;;;;3.08;1.17;;;;;;;;;;5219269;28;20051;-85
2022/01/08 08:23:54;;;;;;;2.00;1.30;;;;;;;;;;5211388;28;20095;-84
2022/01/08 08:26:27;;;;;;;1.75;1.40;;;;;;;;;;5220703;28;20044;-83
2022/01/08 08:29:00;;;;;;;4.30;1.30;;;;;;;;;;5231850;28;20502;-83
2022/01/08 08:31:33;;;;;;;1.50;1.30;;;;;;;;;;5217159;28;20390;-84
2022/01/08 08:34:06;;;;;;;1.80;1.70;;;;;;;;;;5198902;28;20499;-84
2022/01/08 08:36:39;;;;;;;3.13;0.95;;;;;;;;;;5217993;28;20837;-84
2022/01/08 08:39:11;;;;;;;1.88;1.35;;;;;;;;;;5216732;28;20058;-83
2022/01/08 08:41:44;;;;;;;1.30;1.17;;;;;;;;;;5202944;28;20477;-83
2022/01/08 08:44:17;;;;;;;1.30;1.20;;;;;;;;;;5234046;28;20051;-84
2022/01/08 08:46:50;;;;;;;3.35;1.13;;;;;;;;;;5236118;28;20047;-86
2022/01/08 08:49:26;;;;;;;1.40;1.20;;;;;;;;;;5203476;28;20052;-83
2022/01/08 08:52:00;;;;;;;0.80;0.80;;;;;;;;;;5216099;28;20063;-84
2022/01/08 08:54:40;;;;;;;2.08;1.00;;;2.70;99.90;;;;;;5232201;28;20056;-85
2022/01/08 08:57:15;;;;;;;1.23;1.13;;;;;;;;;;5217287;28;20783;-84
2022/01/08 08:59:48;;;;;;;1.25;0.93;;;;;;;;;;5213224;28;20041;-86
2022/01/08 09:02:22;;;;;;;1.40;1.10;;;;;;;;;;5213501;28;20055;-84
2022/01/08 09:04:55;;;;;;;1.20;1.00;;;;;;;;;;5201145;28;20302;-87
2022/01/08 09:07:28;;;;;;;1.67;0.90;;;;;;;;;;5237653;28;20047;-83
2022/01/08 09:10:02;;;;;;;2.60;1.10;;;2.70;99.90;;;;;;5227038;28;20294;-83
2022/01/08 09:12:39;;;;;;;1.33;1.00;;;2.60;99.90;;;;;;5229952;28;20299;-83
2022/01/08 09:15:15;;;;;;;4.45;1.20;;;;;;;;;;5222907;28;20070;-82
2022/01/08 09:17:49;;;;;;;1.30;1.20;;;;;;;;;;5206106;28;20056;-83
2022/01/08 09:20:22;;;;;;;5.70;1.85;;;;;;;;;;5206996;28;20048;-83
2022/01/08 09:22:55;;;;;;;7.75;1.98;;;;;;;;;;5220182;28;20059;-83
2022/01/08 09:25:28;;;;;;;3.92;2.20;;;;;;;;;;5233034;28;20041;-84
2022/01/08 09:28:01;;;;;;;;;;;2.50;99.90;;;;;;5209345;28;20055;-83
2022/01/08 09:30:34;;;;;;;1.83;1.60;;;;;;;;;;5243547;28;19924;-82
2022/01/08 09:33:09;;;;;;;3.30;2.10;;;2.50;99.90;;;;;;5233416;28;20049;-82
2022/01/08 09:35:46;;;;;;;1.45;1.23;;;2.60;99.90;;;;;;5223873;28;20052;-85
2022/01/08 09:38:20;;;;;;;2.03;1.30;;;;;;;;;;5233456;28;20063;-83
2022/01/08 09:40:56;;;;;;;2.78;2.03;;;;;;;;;;5229659;28;20048;-82
2022/01/08 09:43:29;;;;;;;3.40;2.10;;;;;;;;;;5212814;28;20044;-83
2022/01/08 09:46:02;;;;;;;2.83;1.95;;;;;;;;;;5233810;28;20048;-83
2022/01/08 09:48:35;;;;;;;2.22;1.70;;;;;;;;;;5241890;28;20056;-84
2022/01/08 09:51:08;;;;;;;1.67;1.57;;;;;;;;;;5240274;28;20055;-82
2022/01/08 09:53:43;;;;;;;4.05;2.00;;;;;;;;;;5210781;28;20082;-84
2022/01/08 09:56:15;;;;;;;5.63;2.38;;;;;;;;;;5227425;28;20052;-83
2022/01/08 09:58:48;;;;;;;2.67;2.00;;;;;;;;;;5228903;28;20645;-84
2022/01/08 10:01:34;;;;;;;2.33;2.10;;;2.60;99.90;;;;;;5221318;28;20048;-84
2022/01/08 10:04:07;;;;;;;2.30;2.10;;;2.70;99.90;;;;;;5221572;28;20381;-84
2022/01/08 10:06:40;;;;;;;3.55;1.67;;;;;;;;;;5238054;28;20052;-84
2022/01/08 10:09:14;;;;;;;1.70;1.38;;;;;;;;;;5249652;28;20052;-84
2022/01/08 10:11:50;;;;;;;1.98;1.77;;;2.70;99.90;;;;;;5241723;28;20056;-84
2022/01/08 10:17:13;;;;;;;6.30;2.85;;;2.60;99.90;;;;;;5209919;28;20053;-84
2022/01/08 10:17:45;;;;;;;6.00;2.20;;;2.60;99.90;;;;;;5189054;28;20052;-84
2022/01/08 10:20:33;;;;;;;3.90;1.95;;;4.40;99.90;;;;;;5216463;28;20052;-83
2022/01/08 10:23:10;;;;;;;1.70;1.60;;;2.70;99.90;;;;;;5215901;28;20051;-84
2022/01/08 10:26:02;;;;;;;3.00;1.98;;;2.70;99.90;;;;;;5206622;28;20163;-83
2022/01/08 10:28:35;;;;;;;2.28;1.77;;;;;;;;;;5219143;28;20044;-85
2022/01/08 10:31:18;;;;;;;4.37;2.10;;;2.70;99.90;;;;;;5227809;28;20052;-85
2022/01/08 10:33:53;;;;;;;4.75;2.42;;;2.70;99.90;;;;;;5200787;28;20059;-84
2022/01/08 10:36:33;;;;;;;2.53;1.75;;;2.80;99.90;;;;;;5218625;28;20036;-83
2022/01/08 10:39:08;;;;;;;2.80;2.00;;;2.80;99.90;;;;;;5205112;28;20527;-85
2022/01/08 10:41:44;;;;;;;2.13;1.75;;;2.80;99.90;;;;;;5238427;28;20149;-85
2022/01/08 10:44:24;;;;;;;2.58;2.10;;;2.80;99.90;;;;;;5241765;28;20037;-84
2022/01/08 10:47:04;;;;;;;2.80;1.67;;;2.80;99.90;;;;;;5207067;28;20051;-85
2022/01/08 10:50:00;;;;;;;2.47;1.55;;;2.90;99.90;;;;;;5225717;28;20049;-85
2022/01/08 10:52:46;;;;;;;1.88;1.63;;;2.90;99.90;;;;;;5238607;28;20079;-84
2022/01/08 10:55:46;;;;;;;3.72;1.75;;;2.90;99.90;;;;;;5229551;28;20059;-85
2022/01/08 10:58:42;;;;;;;2.55;2.05;;;2.90;99.90;;;;;;5246259;28;21060;-84
2022/01/08 11:01:35;;;;;;;2.83;2.03;;;3.10;99.90;;;;;;5200997;28;20051;-86
2022/01/08 11:04:11;;;;;;;3.70;1.73;;;3.10;99.90;;;;;;5236601;28;20048;-84
2022/01/08 11:06:56;;;;;;;4.13;2.10;;;3.20;99.90;;;;;;5254221;28;20055;-85
2022/01/08 11:09:29;;;;;;;2.58;2.17;;;;;;;;;;5218870;28;20610;-85
2022/01/08 11:12:05;;;;;;;3.58;2.25;;;3.30;99.90;;;;;;5238864;28;20062;-85
2022/01/08 11:17:25;;;;;;;4.80;2.47;;;;;;;;;;5221761;28;20059;-86
2022/01/08 11:20:03;;;;;;;3.58;2.40;;;3.20;99.90;;;;;;5215409;28;20044;-86
2022/01/08 11:22:39;;;;;;;3.40;2.22;;;3.40;99.90;;;;;;5210230;28;20045;-85
2022/01/08 11:25:17;;;;;;;2.70;2.22;;;3.30;99.90;;;;;;5220605;28;20048;-85
2022/01/08 11:28:03;;;;;;;2.67;2.47;;;3.30;99.90;;;;;;5210235;28;20052;-87
2022/01/08 11:30:41;;;;;;;4.20;2.40;;;3.30;99.90;;;;;;5176874;28;20428;-32
2022/01/08 11:33:20;;;;;;;2.67;2.35;;;3.40;99.90;;;;;;5191346;28;20471;-33
2022/01/08 11:35:53;;;;;;;4.40;2.70;;;3.50;99.90;;;;;;5198254;28;20048;-33
2022/01/08 11:38:27;;;;;;;3.78;2.83;;;3.40;99.90;;;;;;5199906;28;20053;-32
2022/01/08 11:41:01;;;;;;;4.53;2.97;;;3.50;99.90;;;;;;5205920;28;20041;-33
2022/01/08 11:43:37;;;;;;;5.82;3.05;;;;;;;;;;5190930;22;20426;-38
2022/01/08 11:46:13;;;;;;;3.40;2.88;;;3.40;99.70;;;;;;5196155;28;20037;-37
2022/01/08 11:48:49;;;;;;;4.05;2.67;;;3.30;99.60;;;;;;5196510;28;20041;-38
2022/01/08 11:51:23;;;;;;;3.67;2.63;;;3.30;99.50;;;;;;5198959;28;20304;-37
2022/01/08 11:53:58;;;;;;;3.38;2.60;;;3.40;99.90;;;;;;5200762;28;20055;-38
2022/01/08 11:56:37;;;;;;;3.63;2.70;;;3.30;99.10;;;;;;5213931;28;20515;-38
2022/01/08 11:59:15;;;;;;;4.13;3.65;;;3.50;99.80;;;;;;5220123;28;20052;-37
2022/01/08 12:02:08;;;;;;;3.67;2.70;;;3.40;99.50;;;;;;5226183;28;20044;-36
2022/01/08 12:04:47;;;;;;;3.70;2.70;;;3.50;99.40;;;;;;5223469;28;20056;-35
2022/01/08 12:07:33;;;;;;;4.70;2.42;;;3.40;99.90;;;;;;5222184;28;20055;-35
2022/01/08 12:10:46;;;;;;;2.60;2.00;;;3.50;98.40;;;;;;5218973;28;20055;-36
2022/01/08 12:13:12;;;;;;;4.43;2.70;;;;;;;;;;5222553;28;20853;-35
2022/01/08 12:15:47;;;;;;;6.93;2.97;;;3.60;97.70;;;;;;5224899;28;20217;-35
2022/01/08 12:18:20;;;;;;;3.58;2.38;;;3.50;97.70;;;;;;5217566;28;20176;-36
2022/01/08 12:20:55;;;;;;;4.88;2.58;;;3.30;97.70;;;;;;5222365;28;20079;-36
2022/01/08 12:23:32;;;;;;;3.20;2.08;;;3.30;97.40;;;;;;5221851;28;20443;-38
2022/01/08 12:26:27;;;;;;;6.70;2.63;;;3.10;97.80;;;;;;5219989;28;20069;-37
2022/01/08 12:29:01;;;;;;;3.80;2.67;;;;;;;;;;5214570;28;20041;-36
2022/01/08 12:31:51;;;;;;;4.82;3.00;;;;;;;;;;5201957;28;20524;-36
2022/01/08 12:34:28;;;;;;;4.45;2.53;;;;;;;;;;5217949;28;20048;-36
2022/01/08 12:37:01;;;;;;;4.28;3.00;;;;;;;;;;5224166;28;20539;-36
2022/01/08 12:39:43;;;;;;;5.13;3.58;;;3.10;96.80;;;;;;5226105;28;20543;-36
2022/01/08 12:42:25;;;;;;;3.83;2.97;;;3.10;97.80;;;;;;5206310;28;20040;-37
2022/01/08 12:45:20;;;;;;;3.08;2.78;;;3.00;97.00;;;;;;5226688;28;20539;-36
2022/01/08 12:48:06;;;;;;;4.93;2.92;;;2.80;97.80;;;;;;5223417;28;20496;-36
2022/01/08 12:50:44;;;;;;;4.15;2.72;;;2.90;98.80;;;;;;5207620;28;20056;-36
2022/01/08 12:53:30;;;;;;;3.20;2.65;;;2.90;98.30;;;;;;5220653;28;20048;-36
2022/01/08 12:56:02;;;;;;;5.20;2.83;;;;;;;;;;5218709;28;20300;-36
2022/01/08 12:58:37;;;;;;;3.90;2.75;;;3.00;98.60;;;;;;5220570;28;20051;-35
2022/01/08 13:01:15;;;;;;;5.40;2.90;;;3.00;99.70;;;;;;5225017;28;20543;-36
2022/01/08 13:03:57;;;;;;;3.75;2.70;;;3.10;99.50;;;;;;5208383;28;20056;-36
2022/01/08 13:06:34;;;;;;;4.30;2.95;;;3.00;99.80;;;;;;5223695;28;20515;-36
2022/01/08 13:09:08;;;;;;;7.32;3.63;;;;;;;;;;5222280;28;20399;-36
2022/01/08 13:11:42;;;;;;;3.67;2.90;;;3.10;98.80;;;;;;5211734;28;20056;-37
2022/01/08 13:14:19;;;;;;;6.35;3.25;;;3.20;99.00;;;;;;5191150;28;20070;-36
2022/01/08 13:16:54;;;;;;;6.78;3.67;;;3.10;97.80;;;;;;5223365;28;20049;-36
2022/01/08 13:19:31;;;;;;;5.88;3.15;;;3.10;97.50;;;;;;5203612;28;20048;-36
2022/01/08 13:22:05;;;;;;;6.65;3.40;;;3.10;97.30;;;;;;5216915;28;20044;-35
2022/01/08 13:24:43;;;;;;;6.57;3.65;;;3.10;97.50;;;;;;5221377;28;20055;-35
2022/01/08 13:27:20;;;;;;;6.30;3.40;;;3.10;97.80;;;;;;5208648;28;20037;-35
2022/01/08 13:29:55;;;;;;;2.60;2.40;;;3.20;98.40;;;;;;5168204;28;20420;-36
2022/01/08 13:32:28;;;;;;;2.78;2.30;;;;;;;;;;5220806;28;20076;-36
2022/01/08 13:35:02;;;;;;;4.60;2.10;;;;;;;;;;5215985;28;20589;-36
2022/01/08 13:37:35;;;;;;;3.75;1.90;;;;;;;;;;5222816;28;20049;-36
2022/01/08 13:40:08;;;;;;;2.90;1.60;;;;;;;;;;5221427;28;20056;-37
2022/01/08 13:42:42;;;;;;;;;;;3.30;97.20;;;;;;5211678;28;20543;-37
2022/01/08 13:45:20;;;;;;;2.10;1.70;;;3.20;95.30;;;;;;5200969;28;19929;-36
2022/01/08 13:47:58;;;;;;;2.25;1.88;;;3.20;95.70;;;;;;5203550;28;20051;-37
2022/01/08 13:50:38;;;;;;;2.92;1.88;;;3.20;95.50;;;;;;5200104;28;20052;-36
2022/01/08 13:53:12;;;;;;;1.95;1.48;;;;;;;;;;5203426;28;20049;-36
2022/01/08 13:55:48;;;;;;;2.85;1.60;;;3.10;95.20;;;;;;5193101;28;20065;-37
2022/01/08 13:58:29;;;;;;;4.90;1.88;;;3.00;95.50;;;;;;5199853;28;20495;-35
2022/01/08 14:01:07;;;;;;;5.93;1.77;;;3.10;95.80;;;;;;5203121;28;20033;-36
2022/01/08 14:03:42;;;;;;;3.35;1.80;;;3.10;95.50;;;;;;5200546;28;20049;-37
2022/01/08 14:06:23;;;;;;;3.10;2.30;;;3.10;95.70;;;;;;5200306;28;20053;-36
2022/01/08 14:08:58;;;;;;;3.78;1.70;;;3.20;95.20;;;;;;5196055;28;20049;-37
2022/01/08 14:11:32;;;;;;;3.78;2.08;;;3.20;94.80;;;;;;5197862;28;20041;-36
2022/01/08 14:14:11;;;;;;;3.28;1.88;;;3.10;94.50;;;;;;5181209;28;20087;-38
2022/01/08 14:16:45;;;;;;;3.10;1.70;;;;;;;;;;5201113;28;20052;-37
2022/01/08 14:19:20;;;;;;;7.97;2.20;;;3.10;93.60;;;;;;5197593;28;20053;-36
2022/01/08 14:21:59;;;;;;;7.07;2.60;;;3.10;93.60;;;;;;5195208;28;20048;-37
2022/01/08 14:24:41;;;;;;;5.93;2.78;;;3.00;94.30;;;;;;5180945;28;20524;-37
2022/01/08 14:27:16;;;;;;;9.13;4.07;;;3.20;94.10;;;;;;5187652;28;20386;-37
2022/01/08 14:30:09;;;;;;;13.10;4.53;;;3.10;93.70;;;;;;5185803;28;20049;-36
2022/01/08 14:32:42;;;;;;;9.65;3.72;;;;;;;;;;5198007;28;20728;-35
2022/01/08 14:35:15;;;;;;;6.40;2.83;;;;;;;;;;5195846;28;20118;-35
2022/01/08 14:37:48;;;;;;;9.55;3.42;;;;;;;;;;5184282;28;20049;-37
2022/01/08 14:40:26;;;;;;;7.63;2.78;;;3.10;93.50;;;;;;5194114;28;20185;-37
2022/01/08 14:43:07;;;;;;;8.35;3.78;;;3.10;93.50;;;;;;5191697;28;20051;-37
2022/01/08 14:45:48;;;;;;;4.28;2.97;;;3.00;93.50;;;;;;5215800;28;20111;-36
2022/01/08 14:48:23;;;;;;;7.70;3.83;;;3.00;93.80;;;;;;5221309;28;20067;-36
2022/01/08 14:50:57;;;;;;;4.82;2.40;;;;;;;;;;5219405;28;20545;-37
2022/01/08 14:53:31;;;;;;;6.50;2.13;;;;;;;;;;5220219;28;20644;-36
2022/01/08 14:56:05;;;;;;;10.10;3.75;;;2.80;93.70;;;;;;5219143;28;20055;-37
2022/01/08 14:58:39;;;;;;;5.68;3.10;;;;;;;;;;5202451;28;20055;-37
2022/01/08 15:01:12;;;;;;;5.60;2.78;;;;;;;;;;5216595;28;20726;-36
2022/01/08 15:03:44;;;;;;;5.22;2.70;;;;;;;;;;5215726;28;20250;-37
2022/01/08 15:06:17;;;;;;;2.95;2.60;;;;;;;;;;5217687;28;20268;-36
2022/01/08 15:08:51;;;;;;;6.70;2.95;;;2.70;94.60;;;;;;5216064;28;20044;-36
2022/01/08 15:11:24;;;;;;;4.45;2.75;;;;;;;;;;5200807;28;20048;-36
2022/01/08 15:13:57;;;;;;;9.27;4.43;;;;;;;;;;5218753;28;20052;-36
2022/01/08 15:16:30;;;;;;;12.05;6.90;;;;;;;;;;5220924;28;20049;-36